CST,Max TemperatureF,Mean TemperatureF,Min TemperatureF,Max Dew PointF,MeanDew PointF,Min DewpointF,Max Humidity, Mean Humidity, Min Humidity, Max Sea Level PressureIn, Mean Sea Level PressureIn, Min Sea Level PressureIn, Max VisibilityMiles, Mean VisibilityMiles, Min VisibilityMiles, Max Wind SpeedMPH, Mean Wind SpeedMPH, Max Gust SpeedMPH,PrecipitationIn, CloudCover, Events, WindDirDegrees
2013-12-1,34,28,21,24,22,18,92,78,67,30.21,30.11,29.93,9,6,4,8,3,,0.00,3,,39
2013-12-2,37,32,28,34,30,24,100,86,73,29.91,29.67,29.56,7,3,0,16,8,23,0.10,8,Fog-Rain-Snow,112
2013-12-3,36,34,32,36,33,30,100,93,87,29.78,29.68,29.58,9,2,0,12,5,17,0.06,8,Fog-Snow,79
2013-12-4,32,24,12,30,26,6,100,90,74,29.77,29.61,29.46,10,3,0,18,8,29,0.44,8,Fog-Rain-Snow,11
2013-12-5,10,4,-2,5,-1,-8,83,74,64,30.40,30.08,29.78,10,10,6,18,12,26,0.00,3,,260
2013-12-6,1,-4,-9,-7,-10,-15,87,76,66,30.71,30.56,30.40,10,10,10,9,6,,0.00,0,,254
2013-12-7,0,-7,-14,-9,-13,-19,87,75,57,30.79,30.72,30.63,10,10,10,9,5,,0.00,0,,241
2013-12-8,12,5,-2,9,4,-8,92,80,69,30.59,30.22,30.01,10,2,1,13,5,,0.00,8,Snow,89
2013-12-9,10,2,-6,9,-4,-12,92,77,62,30.17,30.07,29.92,10,8,2,16,7,24,0.00,3,Snow,241
2013-12-10,14,8,3,9,2,-6,85,75,63,30.32,29.97,29.74,10,7,1,22,10,34,0.00,5,Snow,255
2013-12-11,1,-4,-8,-6,-12,-15,79,67,57,30.61,30.51,30.36,10,10,10,12,8,18,0.00,1,,255
2013-12-12,18,10,3,10,5,-4,84,74,62,30.34,30.26,30.18,10,10,8,10,5,,0.00,3,,232
2013-12-13,17,14,12,9,7,5,81,73,67,30.31,30.21,30.09,10,9,2,15,9,22,0.00,6,Snow,48
2013-12-14,14,8,0,7,5,-7,85,78,70,30.29,30.20,30.07,10,5,2,15,7,21,0.01,7,Snow,348
2013-12-15,3,2,0,-7,-8,-10,72,63,55,30.20,30.17,30.15,10,10,10,12,8,,0.00,6,,342
2013-12-16,21,10,1,17,4,-7,92,78,63,30.16,30.01,29.92,10,6,0,12,8,16,0.04,7,Fog-Snow,179
2013-12-17,34,22,10,26,15,6,87,70,58,30.10,30.00,29.87,10,10,8,22,12,31,0.00,4,,277
2013-12-18,37,22,8,25,18,4,95,76,62,30.07,29.79,29.63,10,10,10,12,6,,0.00,0,,197
2013-12-19,26,21,16,20,12,8,84,75,65,30.09,30.01,29.84,10,8,2,16,9,22,0.00,5,Snow,23
2013-12-20,19,16,14,13,12,10,84,79,74,30.03,29.98,29.88,10,8,1,10,7,,0.00,8,Snow,15
2013-12-21,21,19,17,14,13,10,84,76,68,30.02,29.95,29.87,10,10,8,10,4,,0.00,8,,5
2013-12-22,18,10,3,13,9,-2,85,79,73,30.29,30.05,29.93,10,7,1,13,8,17,0.00,8,Snow,317
2013-12-23,3,-3,-9,-2,-10,-18,85,70,61,30.57,30.42,30.23,10,7,2,14,10,20,0.00,7,Snow,291
2013-12-24,10,-2,-15,7,-5,-22,92,74,48,30.56,30.32,30.14,10,7,0,16,7,22,0.06,5,Fog-Snow,170
2013-12-25,28,19,10,21,12,6,93,79,56,30.18,30.10,30.02,10,7,2,20,5,25,0.01,6,Snow,239
2013-12-26,27,18,10,22,16,8,93,85,79,30.19,30.12,30.05,10,6,1,6,1,,0.00,6,Snow,160
2013-12-27,39,27,15,30,21,12,93,83,65,30.17,30.06,29.92,10,6,0,16,5,23,0.00,2,Fog,220
2013-12-28,44,32,19,30,25,14,100,86,55,30.01,29.85,29.65,10,4,0,23,5,32,0.00,2,Fog,183
2013-12-29,17,2,-14,12,-10,-20,79,63,49,30.37,30.28,30.00,10,10,10,21,14,29,0.00,3,,315
2013-12-30,1,-6,-14,-2,-8,-20,85,77,72,30.35,30.23,30.14,10,4,1,8,3,,0.01,7,Snow,104
2013-12-31,0,-4,-9,-8,-13,-17,92,74,60,30.46,30.35,30.20,10,9,2,7,4,,0.00,4,,328